createdAt,value
2022-09-23T00:02:36.569Z,22.07
2022-09-23T00:07:38.661Z,22.03
2022-09-23T00:12:40.675Z,22.00
2022-09-23T00:17:47.755Z,22.00
2022-09-23T00:22:52.789Z,21.98
2022-09-23T00:28:03.577Z,21.95
2022-09-23T00:33:05.542Z,21.93
2022-09-23T00:38:08.862Z,21.89
2022-09-23T00:43:15.215Z,21.88
2022-09-23T00:48:20.592Z,21.83
2022-09-23T00:53:26.681Z,21.82
2022-09-23T00:58:34.973Z,21.79
2022-09-23T01:03:37.351Z,21.75
2022-09-23T01:08:41.115Z,21.74
2022-09-23T01:13:48.905Z,21.71
2022-09-23T01:22:42.096Z,21.67
2022-09-23T01:28:19.185Z,21.62
2022-09-23T01:33:27.953Z,21.59
2022-09-23T01:39:05.093Z,21.58
2022-09-23T01:44:13.421Z,21.55
2022-09-23T01:49:25.726Z,21.53
2022-09-23T01:54:38.639Z,21.49
2022-09-23T01:59:48.022Z,21.48
2022-09-23T02:05:02.572Z,21.45
2022-09-23T02:10:12.350Z,21.43
2022-09-23T02:15:18.345Z,21.40
2022-09-23T02:20:30.541Z,21.37
2022-09-23T02:25:50.494Z,21.35
2022-09-23T02:31:07.801Z,21.29
2022-09-23T02:36:31.539Z,21.28
2022-09-23T02:42:02.860Z,21.23
2022-09-23T02:47:08.001Z,21.19
2022-09-23T02:52:12.043Z,21.16
2022-09-23T02:57:14.643Z,21.12
2022-09-23T03:02:45.464Z,21.03
2022-09-23T03:08:17.280Z,20.92
2022-09-23T03:13:47.721Z,20.89
2022-09-23T03:19:33.901Z,20.86
2022-09-23T03:24:41.514Z,20.85
2022-09-23T03:29:57.823Z,20.84
2022-09-23T03:35:02.765Z,20.81
2022-09-23T03:40:17.950Z,20.81
2022-09-23T03:45:32.810Z,20.80
2022-09-23T03:50:46.580Z,20.78
2022-09-23T03:55:52.394Z,20.76
2022-09-23T04:00:59.489Z,20.79
2022-09-23T04:06:02.882Z,20.80
2022-09-23T04:11:19.056Z,20.77
2022-09-23T04:16:24.984Z,20.70
2022-09-23T04:27:25.076Z,20.57
2022-09-23T04:32:27.844Z,20.54
2022-09-23T04:37:33.589Z,20.51
2022-09-23T04:42:37.656Z,20.50
2022-09-23T04:47:41.766Z,20.47
2022-09-23T04:52:44.877Z,20.45
2022-09-23T05:03:43.686Z,20.41
2022-09-23T05:08:58.167Z,20.41
2022-09-23T05:25:27.390Z,20.31
2022-09-23T05:30:38.892Z,20.31
2022-09-23T05:35:51.506Z,20.29
2022-09-23T05:41:06.130Z,20.28
2022-09-23T05:46:21.715Z,20.30
2022-09-23T05:51:30.628Z,20.32
2022-09-23T05:56:35.822Z,20.34
2022-09-23T06:01:41.892Z,20.36
2022-09-23T06:06:45.782Z,20.36
2022-09-23T06:11:50.987Z,20.33
2022-09-23T06:16:53.874Z,20.32
2022-09-23T06:21:58.537Z,20.31
2022-09-23T06:27:03.642Z,20.31
2022-09-23T06:32:07.693Z,20.33
2022-09-23T06:37:19.255Z,20.38
2022-09-23T06:42:25.964Z,20.44
2022-09-23T06:47:32.759Z,20.50
2022-09-23T06:52:36.946Z,20.58
2022-09-23T06:57:39.766Z,20.70
2022-09-23T07:02:46.078Z,20.88
2022-09-23T07:07:50.167Z,21.13
2022-09-23T07:12:53.773Z,21.74
2022-09-23T07:17:56.339Z,22.38
2022-09-23T07:23:00.575Z,22.88
2022-09-23T07:28:08.560Z,23.31
2022-09-23T07:33:28.578Z,23.63
2022-09-23T07:38:37.427Z,24.07
2022-09-23T07:43:47.315Z,24.43
2022-09-23T07:48:50.042Z,24.78
2022-09-23T07:53:54.154Z,25.02
2022-09-23T07:59:07.730Z,25.38
2022-09-23T08:04:20.941Z,25.59
2022-09-23T08:09:28.576Z,25.83
2022-09-23T08:14:34.885Z,26.09
2022-09-23T08:25:34.748Z,26.63
2022-09-23T08:30:42.127Z,26.79
2022-09-23T08:35:50.542Z,26.84
2022-09-23T08:41:37.659Z,26.91
2022-09-23T08:46:52.963Z,27.11
2022-09-23T08:51:57.843Z,27.33
2022-09-23T08:57:08.556Z,27.44
2022-09-23T09:02:22.847Z,27.51
2022-09-23T09:07:37.719Z,27.65
2022-09-23T09:13:01.423Z,27.68
2022-09-23T09:18:32.654Z,27.39
2022-09-23T09:24:04.268Z,27.35
2022-09-23T09:29:35.098Z,27.35
2022-09-23T09:34:48.054Z,27.33
2022-09-23T09:39:52.986Z,27.20
2022-09-23T09:45:10.461Z,26.77
2022-09-23T09:50:41.240Z,26.96
2022-09-23T09:56:13.870Z,26.95
2022-09-23T10:01:24.975Z,26.91
2022-09-23T10:06:39.970Z,27.12
2022-09-23T10:11:43.955Z,27.40
2022-09-23T10:17:06.667Z,27.25
2022-09-23T10:22:45.894Z,27.23
2022-09-23T10:27:48.770Z,27.43
2022-09-23T10:32:55.387Z,27.54
2022-09-23T10:38:05.020Z,27.54
2022-09-23T10:43:59.790Z,27.19
2022-09-23T10:49:31.742Z,27.08
2022-09-23T10:54:42.954Z,26.92
2022-09-23T11:00:05.298Z,26.90
2022-09-23T11:06:08.207Z,27.04
2022-09-23T11:11:28.006Z,26.98
2022-09-23T11:17:05.850Z,26.77
2022-09-23T11:22:38.054Z,26.92
2022-09-23T11:27:44.099Z,27.09
2022-09-23T11:33:33.091Z,27.07
2022-09-23T11:38:51.264Z,27.03
2022-09-23T11:44:10.475Z,27.13
2022-09-23T11:49:33.315Z,27.20
2022-09-23T11:54:49.355Z,27.15
2022-09-23T12:00:09.036Z,27.18
2022-09-23T12:05:31.844Z,27.05
2022-09-23T12:11:23.329Z,27.12
2022-09-23T12:17:04.508Z,26.98
2022-09-23T12:28:26.662Z,27.32
2022-09-23T12:33:35.113Z,27.18
2022-09-23T12:38:51.851Z,27.08
2022-09-23T12:44:00.012Z,27.01
2022-09-23T12:49:06.715Z,26.84
2022-09-23T12:54:28.288Z,26.75
2022-09-23T13:00:03.164Z,26.95
2022-09-23T13:05:42.579Z,27.08
2022-09-23T13:16:31.844Z,26.96
2022-09-23T13:21:46.775Z,27.00
2022-09-23T13:27:07.045Z,27.09
2022-09-23T13:32:39.435Z,27.00
2022-09-23T13:37:56.746Z,26.89
2022-09-23T13:43:04.829Z,26.88
2022-09-23T13:48:59.546Z,26.88
2022-09-23T13:54:38.268Z,26.85
2022-09-23T13:59:42.402Z,26.87
2022-09-23T14:04:48.330Z,26.57
2022-09-23T14:09:58.285Z,26.37
2022-09-23T14:15:04.315Z,26.28
2022-09-23T14:25:47.674Z,26.01
2022-09-23T14:31:03.727Z,25.92
2022-09-23T14:36:37.218Z,25.86
2022-09-23T14:41:44.724Z,25.83
2022-09-23T14:47:06.188Z,25.94
2022-09-23T14:52:22.414Z,26.05
2022-09-23T14:57:34.513Z,25.99
2022-09-23T15:02:58.103Z,25.88
2022-09-23T15:08:06.791Z,25.78
2022-09-23T15:13:17.253Z,25.73
2022-09-23T15:18:30.659Z,25.62
2022-09-23T15:23:59.158Z,25.62
2022-09-23T15:29:03.039Z,25.59
2022-09-23T15:34:17.891Z,25.55
2022-09-23T15:39:32.043Z,25.48
2022-09-23T15:44:45.640Z,25.40
2022-09-23T15:49:54.025Z,25.36
2022-09-23T15:54:57.387Z,25.35
2022-09-23T16:00:04.048Z,25.29
2022-09-23T16:05:49.087Z,25.26
2022-09-23T16:11:00.567Z,25.18
2022-09-23T16:16:08.549Z,25.09
2022-09-23T16:27:18.495Z,25.05
2022-09-23T16:32:24.744Z,24.97
2022-09-23T16:37:37.544Z,24.86
2022-09-23T16:42:42.635Z,24.77
2022-09-23T16:47:53.495Z,24.68
2022-09-23T16:52:56.981Z,24.61
2022-09-23T16:58:01.290Z,24.59
2022-09-23T17:03:26.216Z,24.58
2022-09-23T17:08:31.333Z,24.54
2022-09-23T17:13:36.823Z,24.51
2022-09-23T17:18:44.399Z,24.49
2022-09-23T17:23:47.884Z,24.49
2022-09-23T17:28:58.749Z,24.50
2022-09-23T17:34:09.556Z,24.48
2022-09-23T17:39:17.598Z,24.50
2022-09-23T17:44:22.085Z,24.51
2022-09-23T17:49:26.065Z,24.47
2022-09-23T17:54:45.410Z,24.45
2022-09-23T17:59:53.987Z,24.40
2022-09-23T18:05:03.680Z,24.35
2022-09-23T18:10:10.692Z,24.32
2022-09-23T18:15:18.174Z,24.27
2022-09-23T18:20:24.141Z,24.22
2022-09-23T18:25:39.978Z,24.14
2022-09-23T18:30:57.911Z,24.08
2022-09-23T18:36:11.812Z,24.05
2022-09-23T18:41:17.888Z,24.06
2022-09-23T18:46:41.197Z,24.04
2022-09-23T18:51:56.563Z,23.95
2022-09-23T18:57:03.631Z,23.86
2022-09-23T19:02:11.358Z,23.76
2022-09-23T19:07:19.279Z,23.68
2022-09-23T19:12:23.852Z,23.63
2022-09-23T19:17:36.593Z,23.60
2022-09-23T19:22:42.819Z,23.56
2022-09-23T19:27:44.880Z,23.54
2022-09-23T19:32:50.404Z,23.51
2022-09-23T19:37:57.871Z,23.50
2022-09-23T19:43:02.315Z,23.52
2022-09-23T19:48:09.551Z,23.56
2022-09-23T19:53:14.243Z,23.59
2022-09-23T19:58:21.317Z,23.58
2022-09-23T20:03:26.206Z,23.58
2022-09-23T20:08:29.948Z,23.59
2022-09-23T20:13:35.147Z,23.64
2022-09-23T20:18:39.040Z,23.67
2022-09-23T20:23:42.892Z,23.64
2022-09-23T20:28:46.709Z,23.54
2022-09-23T20:33:51.709Z,23.43
2022-09-23T20:39:04.944Z,23.31
2022-09-23T20:44:20.487Z,23.25
2022-09-23T20:49:30.176Z,23.17
2022-09-23T20:54:36.017Z,23.05
2022-09-23T20:59:54.086Z,22.94
2022-09-23T21:05:04.395Z,22.85
2022-09-23T21:10:13.555Z,22.77
2022-09-23T21:15:34.363Z,22.73
2022-09-23T21:20:40.868Z,22.71
2022-09-23T21:25:44.932Z,22.73
2022-09-23T21:30:52.094Z,22.74
2022-09-23T21:35:56.110Z,22.72
2022-09-23T21:41:02.133Z,22.73
2022-09-23T21:46:09.463Z,22.72
2022-09-23T21:51:15.390Z,22.73
2022-09-23T21:56:31.109Z,22.72
2022-09-23T22:01:42.544Z,22.71
2022-09-23T22:06:49.499Z,22.71
2022-09-23T22:12:13.974Z,22.69
2022-09-23T22:17:23.369Z,22.66
2022-09-23T22:22:31.156Z,22.65
2022-09-23T22:28:06.121Z,22.65
2022-09-23T22:33:09.335Z,22.65
2022-09-23T22:38:17.981Z,22.66
2022-09-23T22:43:24.501Z,22.65
2022-09-23T22:48:32.720Z,22.66
2022-09-23T22:53:43.344Z,22.68
2022-09-23T22:58:53.229Z,22.69
2022-09-23T23:03:56.977Z,22.71
2022-09-23T23:09:00.516Z,22.68
2022-09-23T23:14:03.294Z,22.64
2022-09-23T23:19:15.011Z,22.60
2022-09-23T23:24:21.134Z,22.57
2022-09-23T23:29:26.430Z,22.58
2022-09-23T23:34:32.893Z,22.63
2022-09-23T23:39:36.711Z,22.57
2022-09-23T23:44:43.272Z,22.30
2022-09-23T23:49:51.102Z,21.83
2022-09-23T23:55:03.376Z,21.37
